createdAt,value
2017-04-13T00:00:22.615Z,1003.68
2017-04-13T00:01:03.500Z,1003.62
2017-04-13T00:01:44.421Z,1003.67
2017-04-13T00:02:25.261Z,1003.59
2017-04-13T00:03:06.141Z,1003.61
2017-04-13T00:03:47.033Z,1003.62
2017-04-13T00:04:27.909Z,1003.6
2017-04-13T00:05:08.793Z,1003.63
2017-04-13T00:05:49.660Z,1003.6
2017-04-13T00:06:30.531Z,1003.6
2017-04-13T00:07:11.407Z,1003.62
2017-04-13T00:07:52.289Z,1003.66
2017-04-13T00:08:33.159Z,1003.63
2017-04-13T00:09:14.035Z,1003.66
2017-04-13T00:09:54.924Z,1003.63
2017-04-13T00:10:35.816Z,1003.58
2017-04-13T00:11:16.682Z,1003.66
2017-04-13T00:11:57.563Z,1003.62
2017-04-13T00:12:38.447Z,1003.61
2017-04-13T00:13:19.335Z,1003.58
2017-04-13T00:14:00.217Z,1003.62
2017-04-13T00:14:41.103Z,1003.59
2017-04-13T00:15:21.987Z,1003.62
2017-04-13T00:16:02.866Z,1003.59
2017-04-13T00:16:43.743Z,1003.59
2017-04-13T00:17:24.612Z,1003.58
2017-04-13T00:18:05.498Z,1003.59
2017-04-13T00:18:46.376Z,1003.61
2017-04-13T00:19:27.256Z,1003.63
2017-04-13T00:20:08.138Z,1003.64
2017-04-13T00:20:49.021Z,1003.66
2017-04-13T00:21:29.915Z,1003.68
2017-04-13T00:22:10.798Z,1003.58
2017-04-13T00:22:51.677Z,1003.56
2017-04-13T00:23:32.562Z,1003.55
2017-04-13T00:24:13.439Z,1003.54
2017-04-13T00:24:54.308Z,1003.58
2017-04-13T00:25:35.183Z,1003.54
2017-04-13T00:26:16.064Z,1003.58
2017-04-13T00:26:56.940Z,1003.54
2017-04-13T00:27:37.824Z,1003.52
2017-04-13T00:28:18.699Z,1003.52
2017-04-13T00:28:59.578Z,1003.49
2017-04-13T00:29:40.462Z,1003.51
2017-04-13T00:30:21.366Z,1003.61
2017-04-13T00:31:02.241Z,1003.54
2017-04-13T00:31:43.124Z,1003.5
2017-04-13T00:32:24.003Z,1003.51
2017-04-13T00:33:04.878Z,1003.42
2017-04-13T00:33:45.761Z,1003.49
2017-04-13T00:34:26.651Z,1003.47
2017-04-13T00:35:07.541Z,1003.59
2017-04-13T00:35:48.430Z,1003.58
2017-04-13T00:36:29.320Z,1003.54
2017-04-13T00:37:10.202Z,1003.55
2017-04-13T00:37:51.089Z,1003.52
2017-04-13T00:38:31.962Z,1003.61
2017-04-13T00:39:12.842Z,1003.59
2017-04-13T00:39:53.712Z,1003.58
2017-04-13T00:40:34.589Z,1003.59
2017-04-13T00:41:15.455Z,1003.57
2017-04-13T00:41:56.331Z,1003.56
2017-04-13T00:42:37.226Z,1003.55
2017-04-13T00:43:18.093Z,1003.6
2017-04-13T00:43:58.979Z,1003.61
2017-04-13T00:44:39.860Z,1003.74
2017-04-13T00:45:20.746Z,1003.69
2017-04-13T00:46:01.618Z,1003.67
2017-04-13T00:46:42.495Z,1003.73
2017-04-13T00:47:23.378Z,1003.72
2017-04-13T00:48:04.261Z,1003.75
2017-04-13T00:48:45.139Z,1003.78
2017-04-13T00:49:26.027Z,1003.81
2017-04-13T00:50:06.906Z,1003.9
2017-04-13T00:50:47.794Z,1003.79
2017-04-13T00:51:28.676Z,1003.83
2017-04-13T00:52:09.553Z,1003.85
2017-04-13T00:52:50.428Z,1003.83
2017-04-13T00:53:31.302Z,1003.91
2017-04-13T00:54:12.185Z,1003.75
2017-04-13T00:54:53.064Z,1003.85
2017-04-13T00:55:33.937Z,1003.86
2017-04-13T00:56:14.815Z,1003.95
2017-04-13T00:56:55.688Z,1003.86
2017-04-13T00:57:36.576Z,1003.84
2017-04-13T00:58:17.464Z,1003.86
2017-04-13T00:58:58.329Z,1003.86
2017-04-13T00:59:39.192Z,1003.84
2017-04-13T01:00:20.072Z,1003.8
2017-04-13T01:01:00.950Z,1003.8
2017-04-13T01:01:41.832Z,1003.84
2017-04-13T01:02:22.712Z,1003.83
2017-04-13T01:03:03.590Z,1003.83
2017-04-13T01:03:44.468Z,1003.93
2017-04-13T01:04:25.343Z,1003.87
2017-04-13T01:05:06.228Z,1003.86
2017-04-13T01:05:47.111Z,1003.8
2017-04-13T01:06:27.974Z,1003.81
2017-04-13T01:07:08.855Z,1003.81
2017-04-13T01:07:49.760Z,1003.93
2017-04-13T01:08:30.607Z,1003.87
2017-04-13T01:09:11.486Z,1003.86
2017-04-13T01:09:52.365Z,1003.86
2017-04-13T01:10:33.249Z,1003.9
2017-04-13T01:11:14.126Z,1003.87
2017-04-13T01:11:55.001Z,1003.89
2017-04-13T01:12:35.883Z,1003.89
2017-04-13T01:13:16.761Z,1003.95
2017-04-13T01:13:57.644Z,1003.94
2017-04-13T01:14:38.523Z,1003.9
2017-04-13T01:15:19.402Z,1003.91
2017-04-13T01:16:00.280Z,1003.93
2017-04-13T01:16:41.160Z,1003.97
2017-04-13T01:17:22.028Z,1003.88
2017-04-13T01:18:02.903Z,1003.92
2017-04-13T01:18:43.785Z,1003.88
2017-04-13T01:19:24.669Z,1003.91
2017-04-13T01:20:05.550Z,1003.87
2017-04-13T01:20:46.427Z,1003.88
2017-04-13T01:21:27.304Z,1003.91
2017-04-13T01:22:08.169Z,1003.93
2017-04-13T01:22:49.055Z,1003.81
2017-04-13T01:23:29.931Z,1003.81
2017-04-13T01:24:10.818Z,1003.85
2017-04-13T01:24:51.703Z,1003.88
2017-04-13T01:25:32.584Z,1003.81
2017-04-13T01:26:13.463Z,1003.82
2017-04-13T01:26:54.341Z,1003.86
2017-04-13T01:27:35.220Z,1003.83
2017-04-13T01:28:16.095Z,1003.84
2017-04-13T01:28:56.980Z,1003.92
2017-04-13T01:29:37.856Z,1003.88
2017-04-13T01:30:18.729Z,1003.86
2017-04-13T01:32:12.378Z,1003.87
2017-04-13T01:32:53.253Z,1003.88
2017-04-13T01:33:34.134Z,1003.86
2017-04-13T01:35:32.865Z,1003.9
2017-04-13T01:36:13.739Z,1003.86
2017-04-13T01:36:54.610Z,1003.88
2017-04-13T01:37:35.488Z,1003.82
2017-04-13T01:38:16.366Z,1003.86
2017-04-13T01:38:57.256Z,1003.86
2017-04-13T01:39:38.131Z,1003.87
2017-04-13T01:40:19.009Z,1003.85
2017-04-13T01:40:59.884Z,1003.89
2017-04-13T01:41:40.761Z,1003.89
2017-04-13T01:42:21.632Z,1003.88
2017-04-13T01:43:02.506Z,1003.85
2017-04-13T01:43:43.386Z,1003.85
2017-04-13T01:44:24.262Z,1003.83
2017-04-13T01:45:05.156Z,1003.82
2017-04-13T01:45:46.014Z,1003.78
2017-04-13T01:46:26.894Z,1003.82
2017-04-13T01:47:07.775Z,1003.8
2017-04-13T01:47:48.655Z,1003.84
2017-04-13T01:48:29.538Z,1003.81
2017-04-13T01:49:10.421Z,1003.82
2017-04-13T01:49:51.293Z,1003.84
2017-04-13T01:50:32.199Z,1003.85
2017-04-13T01:51:13.033Z,1003.86
2017-04-13T01:51:53.921Z,1003.82
2017-04-13T01:52:34.787Z,1003.81
2017-04-13T01:53:15.667Z,1003.83
2017-04-13T01:53:56.557Z,1003.76
2017-04-13T01:54:37.420Z,1003.79
2017-04-13T01:55:18.297Z,1003.76
2017-04-13T01:55:59.176Z,1003.78
2017-04-13T01:56:40.064Z,1003.79
2017-04-13T01:57:20.943Z,1003.81
2017-04-13T01:58:01.816Z,1003.78
2017-04-13T01:58:42.690Z,1003.8
2017-04-13T01:59:23.572Z,1003.79
2017-04-13T02:00:04.464Z,1003.79
2017-04-13T02:00:45.347Z,1003.79
2017-04-13T02:01:26.222Z,1003.8
2017-04-13T02:02:07.103Z,1003.81
2017-04-13T02:02:47.986Z,1003.81
2017-04-13T02:03:28.867Z,1003.78
2017-04-13T02:04:09.748Z,1003.77
2017-04-13T02:04:50.627Z,1003.76
2017-04-13T02:05:31.507Z,1003.8
2017-04-13T02:06:12.385Z,1003.77
2017-04-13T02:06:53.276Z,1003.81
2017-04-13T02:07:34.135Z,1003.8
2017-04-13T02:08:15.010Z,1003.8
2017-04-13T02:08:55.896Z,1003.79
2017-04-13T02:09:36.780Z,1003.82
2017-04-13T02:10:17.658Z,1003.78
2017-04-13T02:10:58.534Z,1003.81
2017-04-13T02:11:39.409Z,1003.79
2017-04-13T02:12:20.310Z,1003.81
2017-04-13T02:13:01.187Z,1003.76
2017-04-13T02:13:42.072Z,1003.8
2017-04-13T02:14:22.951Z,1003.79
2017-04-13T02:15:03.831Z,1003.8
2017-04-13T02:15:44.714Z,1003.76
2017-04-13T02:16:25.590Z,1003.69
2017-04-13T02:17:06.462Z,1003.81
2017-04-13T02:17:47.346Z,1003.76
2017-04-13T02:18:28.229Z,1003.75
2017-04-13T02:19:09.106Z,1003.8
2017-04-13T02:19:49.983Z,1003.82
2017-04-13T02:20:30.862Z,1003.77
2017-04-13T02:21:11.745Z,1003.75
2017-04-13T02:21:52.624Z,1003.77
2017-04-13T02:22:33.505Z,1003.77
2017-04-13T02:23:14.374Z,1003.78
2017-04-13T02:23:55.249Z,1003.79
2017-04-13T02:24:36.126Z,1003.8
2017-04-13T02:25:17.010Z,1003.8
2017-04-13T02:25:57.902Z,1003.83
2017-04-13T02:26:38.774Z,1003.79
2017-04-13T02:27:19.634Z,1003.8
2017-04-13T02:28:00.516Z,1003.78
2017-04-13T02:28:41.397Z,1003.75
2017-04-13T02:29:22.275Z,1003.76
2017-04-13T02:30:03.158Z,1003.71
2017-04-13T02:30:44.037Z,1003.72
2017-04-13T02:31:24.909Z,1003.72
2017-04-13T02:32:05.791Z,1003.8
2017-04-13T02:32:46.671Z,1003.72
2017-04-13T02:33:27.550Z,1003.74
2017-04-13T02:34:08.412Z,1003.76
2017-04-13T02:34:49.284Z,1003.75
2017-04-13T02:35:30.162Z,1003.75
2017-04-13T02:36:11.045Z,1003.84
2017-04-13T02:36:51.923Z,1003.73
2017-04-13T02:37:32.798Z,1003.78
2017-04-13T02:38:13.661Z,1003.78
2017-04-13T02:38:54.535Z,1003.76
2017-04-13T02:39:35.408Z,1003.82
2017-04-13T02:40:16.294Z,1003.78
2017-04-13T02:40:57.173Z,1003.82
2017-04-13T02:41:38.051Z,1003.82
2017-04-13T02:42:18.937Z,1003.73
2017-04-13T02:42:59.817Z,1003.69
2017-04-13T02:43:40.701Z,1003.73
2017-04-13T02:44:21.578Z,1003.74
2017-04-13T02:45:02.448Z,1003.72
2017-04-13T02:45:43.322Z,1003.76
2017-04-13T02:46:24.206Z,1003.72
2017-04-13T02:47:05.093Z,1003.77
2017-04-13T02:47:45.973Z,1003.7
2017-04-13T02:48:26.843Z,1003.74
2017-04-13T02:49:07.711Z,1003.8
2017-04-13T02:49:48.605Z,1003.8
2017-04-13T02:50:29.482Z,1003.77
2017-04-13T02:51:10.360Z,1003.81
2017-04-13T02:51:51.234Z,1003.87
2017-04-13T02:52:32.105Z,1003.75
2017-04-13T02:53:12.992Z,1003.79
2017-04-13T02:53:53.877Z,1003.79
2017-04-13T02:54:34.757Z,1003.82
2017-04-13T02:55:15.643Z,1003.81
2017-04-13T02:55:56.532Z,1003.8
2017-04-13T02:56:37.412Z,1003.81
2017-04-13T02:57:18.287Z,1003.82
2017-04-13T02:57:59.160Z,1003.77
2017-04-13T02:58:40.040Z,1003.78
2017-04-13T02:59:20.929Z,1003.82
2017-04-13T03:00:01.812Z,1003.82
2017-04-13T03:00:42.681Z,1003.77
2017-04-13T03:01:23.557Z,1003.79
2017-04-13T03:02:04.454Z,1003.77
2017-04-13T03:02:45.335Z,1003.78
2017-04-13T03:03:26.206Z,1003.75
2017-04-13T03:04:07.082Z,1003.84
2017-04-13T03:04:47.954Z,1003.77
2017-04-13T03:05:28.845Z,1003.81
2017-04-13T03:06:09.724Z,1003.81
2017-04-13T03:06:50.606Z,1003.79
2017-04-13T03:07:31.490Z,1003.81
2017-04-13T03:08:12.350Z,1003.81
2017-04-13T03:08:53.235Z,1003.81
2017-04-13T03:09:34.110Z,1003.79
2017-04-13T03:10:14.996Z,1003.86
2017-04-13T03:10:55.870Z,1003.83
2017-04-13T03:11:36.751Z,1003.84
2017-04-13T03:12:17.628Z,1003.82
2017-04-13T03:12:58.513Z,1003.83
2017-04-13T03:13:39.407Z,1003.86
2017-04-13T03:14:20.277Z,1003.84
2017-04-13T03:15:01.162Z,1003.85
2017-04-13T03:15:42.053Z,1003.91
2017-04-13T03:16:22.921Z,1003.85
2017-04-13T03:17:03.795Z,1003.8
2017-04-13T03:17:44.671Z,1003.78
2017-04-13T03:18:25.560Z,1003.79
2017-04-13T03:19:06.436Z,1003.84
2017-04-13T03:19:47.318Z,1003.81
2017-04-13T03:20:28.193Z,1003.82
2017-04-13T03:21:09.075Z,1003.81
2017-04-13T03:21:49.952Z,1003.81
2017-04-13T03:22:30.834Z,1003.81
2017-04-13T03:23:11.709Z,1003.78
2017-04-13T03:23:52.578Z,1003.79
2017-04-13T03:24:33.466Z,1003.81
2017-04-13T03:25:14.347Z,1003.83
2017-04-13T03:25:55.234Z,1003.81
2017-04-13T03:26:36.119Z,1003.81
2017-04-13T03:27:16.997Z,1003.74
2017-04-13T03:27:57.876Z,1003.74
2017-04-13T03:28:38.796Z,1003.74
2017-04-13T03:29:19.643Z,1003.78
2017-04-13T03:30:00.527Z,1003.71
2017-04-13T03:30:41.408Z,1003.73
2017-04-13T03:31:22.293Z,1003.7
2017-04-13T03:32:03.186Z,1003.75
2017-04-13T03:32:44.054Z,1003.77
2017-04-13T03:33:24.942Z,1003.74
2017-04-13T03:34:05.826Z,1003.77
2017-04-13T03:34:46.690Z,1003.69
2017-04-13T03:35:27.565Z,1003.71
2017-04-13T03:36:08.438Z,1003.74
2017-04-13T03:36:49.324Z,1003.71
2017-04-13T03:37:30.216Z,1003.7
2017-04-13T03:38:11.088Z,1003.71
2017-04-13T03:38:51.968Z,1003.71
2017-04-13T03:39:32.857Z,1003.69
2017-04-13T03:40:13.739Z,1003.68
2017-04-13T03:40:54.623Z,1003.66
2017-04-13T03:41:35.500Z,1003.67
2017-04-13T03:42:16.382Z,1003.72
2017-04-13T03:42:57.273Z,1003.68
2017-04-13T03:43:38.154Z,1003.66
2017-04-13T03:44:19.033Z,1003.67
2017-04-13T03:44:59.916Z,1003.68
2017-04-13T03:45:40.807Z,1003.66
2017-04-13T03:46:21.686Z,1003.71
2017-04-13T03:47:02.568Z,1003.67
2017-04-13T03:47:43.443Z,1003.67
2017-04-13T03:48:24.315Z,1003.66
2017-04-13T03:49:05.201Z,1003.7
2017-04-13T03:49:46.078Z,1003.67
2017-04-13T03:50:26.964Z,1003.69
2017-04-13T03:51:07.839Z,1003.66
2017-04-13T03:51:48.741Z,1003.64
2017-04-13T03:52:29.626Z,1003.66
2017-04-13T03:53:10.494Z,1003.65
2017-04-13T03:53:51.374Z,1003.69
2017-04-13T03:54:32.257Z,1003.67
2017-04-13T03:55:13.132Z,1003.69
2017-04-13T03:55:54.007Z,1003.69
2017-04-13T03:56:34.888Z,1003.73
2017-04-13T03:57:15.747Z,1003.75
2017-04-13T03:57:56.626Z,1003.77
2017-04-13T03:58:37.517Z,1003.78
2017-04-13T03:59:18.393Z,1003.78
2017-04-13T03:59:59.284Z,1003.81
2017-04-13T04:00:40.143Z,1003.87
2017-04-13T04:01:21.025Z,1003.77
2017-04-13T04:02:01.907Z,1003.85
2017-04-13T04:02:42.781Z,1003.79
2017-04-13T04:03:23.660Z,1003.78
2017-04-13T04:04:04.545Z,1003.78
2017-04-13T04:04:45.414Z,1003.77
2017-04-13T04:05:26.288Z,1003.81
2017-04-13T04:06:07.195Z,1003.78
2017-04-13T04:06:48.073Z,1003.8
2017-04-13T04:07:28.940Z,1003.78
2017-04-13T04:08:09.808Z,1003.78
2017-04-13T04:08:50.699Z,1003.77
2017-04-13T04:09:31.578Z,1003.76
2017-04-13T04:10:12.438Z,1003.8
2017-04-13T04:10:53.311Z,1003.84
2017-04-13T04:11:34.194Z,1003.8
2017-04-13T04:12:15.074Z,1003.85
2017-04-13T04:12:55.947Z,1003.84
2017-04-13T04:13:36.820Z,1003.87
2017-04-13T04:14:17.700Z,1003.85
2017-04-13T04:14:58.584Z,1003.88
2017-04-13T04:15:39.464Z,1003.87
2017-04-13T04:16:20.350Z,1003.85
2017-04-13T04:17:01.229Z,1003.85
2017-04-13T04:17:42.114Z,1003.89
2017-04-13T04:18:23.011Z,1003.89
2017-04-13T04:19:03.885Z,1003.94
2017-04-13T04:19:44.768Z,1003.92
2017-04-13T04:20:25.641Z,1003.91
2017-04-13T04:21:06.518Z,1003.97
2017-04-13T04:21:47.418Z,1003.9
2017-04-13T04:22:28.302Z,1003.85
2017-04-13T04:23:09.185Z,1003.85
2017-04-13T04:23:50.062Z,1003.87
2017-04-13T04:24:30.940Z,1003.91
2017-04-13T04:25:11.809Z,1003.91
2017-04-13T04:25:52.691Z,1003.86
2017-04-13T04:26:33.564Z,1003.91
2017-04-13T04:27:14.439Z,1003.9
2017-04-13T04:27:55.326Z,1003.95
2017-04-13T04:28:36.210Z,1003.89
2017-04-13T04:29:17.084Z,1003.98
2017-04-13T04:29:57.957Z,1003.96
2017-04-13T04:30:38.843Z,1003.96
2017-04-13T04:31:19.722Z,1004
2017-04-13T04:32:00.603Z,1003.95
2017-04-13T04:32:41.486Z,1003.98
2017-04-13T04:33:22.368Z,1003.96
2017-04-13T04:34:03.240Z,1003.91
2017-04-13T04:34:44.133Z,1003.98
2017-04-13T04:35:25.010Z,1004.03
2017-04-13T04:36:05.950Z,1004.02
2017-04-13T04:36:46.797Z,1004.05
2017-04-13T04:37:27.684Z,1004.03
2017-04-13T04:38:08.573Z,1004.05
2017-04-13T04:38:49.446Z,1004.04
2017-04-13T04:39:30.327Z,1004.01
2017-04-13T04:40:11.208Z,1004.02
2017-04-13T04:40:52.106Z,1004.03
2017-04-13T04:41:32.985Z,1004.07
2017-04-13T04:42:13.867Z,1004.03
2017-04-13T04:42:54.757Z,1004.07
2017-04-13T04:43:35.630Z,1004.11
2017-04-13T04:44:16.514Z,1004.04
2017-04-13T04:44:57.425Z,1004.04
2017-04-13T04:45:38.307Z,1004.1
2017-04-13T04:46:19.189Z,1004.01
2017-04-13T04:47:00.069Z,1004.04
2017-04-13T04:47:40.952Z,1004.02
2017-04-13T04:48:21.844Z,1004.06
2017-04-13T04:49:02.721Z,1004.04
2017-04-13T04:49:43.602Z,1004.06
2017-04-13T04:50:24.482Z,1004.05
2017-04-13T04:51:05.372Z,1004.03
2017-04-13T04:51:46.245Z,1004.08
2017-04-13T04:52:27.127Z,1004.1
2017-04-13T04:53:08.016Z,1004.09
2017-04-13T04:53:48.900Z,1004.07
2017-04-13T04:54:29.778Z,1004.07
2017-04-13T04:55:10.660Z,1004.09
2017-04-13T04:55:51.554Z,1004.05
2017-04-13T04:56:32.450Z,1004.14
2017-04-13T04:57:13.330Z,1004.15
2017-04-13T04:57:54.209Z,1004.13
2017-04-13T04:58:35.093Z,1004.14
2017-04-13T04:59:15.965Z,1004.11
2017-04-13T04:59:56.852Z,1004.12
2017-04-13T05:00:37.733Z,1004.11
2017-04-13T05:01:18.608Z,1004.1
2017-04-13T05:01:59.546Z,1004.12
2017-04-13T05:02:40.386Z,1004.17
2017-04-13T05:03:21.303Z,1004.14
2017-04-13T05:04:02.196Z,1004.14
2017-04-13T05:04:43.067Z,1004.11
2017-04-13T05:05:23.952Z,1004.11
2017-04-13T05:06:04.834Z,1004.14
2017-04-13T05:06:45.716Z,1004.13
2017-04-13T05:07:26.605Z,1004.07
2017-04-13T05:08:07.489Z,1004.16
2017-04-13T05:08:48.387Z,1004.15
2017-04-13T05:09:29.274Z,1004.16
2017-04-13T05:10:10.151Z,1004.18
2017-04-13T05:10:51.035Z,1004.16
2017-04-13T05:11:31.919Z,1004.2
2017-04-13T05:12:12.795Z,1004.21
2017-04-13T05:12:53.703Z,1004.16
2017-04-13T05:13:34.611Z,1004.2
2017-04-13T05:14:15.496Z,1004.21
2017-04-13T05:14:56.375Z,1004.25
2017-04-13T05:15:37.261Z,1004.18
2017-04-13T05:16:18.153Z,1004.16
2017-04-13T05:16:59.020Z,1004.19
2017-04-13T05:17:39.898Z,1004.15
2017-04-13T05:18:20.785Z,1004.23
2017-04-13T05:19:01.661Z,1004.16
2017-04-13T05:19:42.548Z,1004.23
2017-04-13T05:20:23.430Z,1004.28
2017-04-13T05:21:04.308Z,1004.25
2017-04-13T05:21:45.198Z,1004.25
2017-04-13T05:22:26.075Z,1004.28
2017-04-13T05:23:06.951Z,1004.28
2017-04-13T05:23:47.832Z,1004.26
2017-04-13T05:24:28.710Z,1004.26
2017-04-13T05:25:09.594Z,1004.28
2017-04-13T05:25:50.466Z,1004.24
2017-04-13T05:26:31.345Z,1004.27
2017-04-13T05:27:12.223Z,1004.27
2017-04-13T05:27:53.107Z,1004.22
2017-04-13T05:28:33.995Z,1004.26
2017-04-13T05:29:14.877Z,1004.28
2017-04-13T05:29:55.754Z,1004.32
2017-04-13T05:30:36.736Z,1004.24
2017-04-13T05:31:17.625Z,1004.25
2017-04-13T05:31:58.505Z,1004.25
2017-04-13T05:32:39.393Z,1004.26
2017-04-13T05:33:20.279Z,1004.23
2017-04-13T05:34:01.157Z,1004.27
2017-04-13T05:34:42.028Z,1004.3
2017-04-13T05:35:22.909Z,1004.3
2017-04-13T05:36:03.792Z,1004.28
2017-04-13T05:36:44.714Z,1004.33
2017-04-13T05:37:25.562Z,1004.32
2017-04-13T05:38:06.461Z,1004.33
2017-04-13T05:38:47.344Z,1004.31
2017-04-13T05:39:28.226Z,1004.34
2017-04-13T05:40:09.116Z,1004.33
2017-04-13T05:40:50.000Z,1004.32
2017-04-13T05:41:30.880Z,1004.3
2017-04-13T05:42:11.775Z,1004.3
2017-04-13T05:42:52.647Z,1004.33
2017-04-13T05:43:33.527Z,1004.3
2017-04-13T05:44:14.404Z,1004.31
2017-04-13T05:44:55.290Z,1004.37
2017-04-13T05:45:36.174Z,1004.31
2017-04-13T05:46:17.048Z,1004.37
2017-04-13T05:46:57.937Z,1004.35
2017-04-13T05:47:38.847Z,1004.37
2017-04-13T05:49:12.039Z,1004.41
2017-04-13T05:49:52.913Z,1004.39
2017-04-13T05:50:33.793Z,1004.5
2017-04-13T05:51:14.675Z,1004.39
2017-04-13T05:51:55.553Z,1004.42
2017-04-13T05:52:36.427Z,1004.45
2017-04-13T05:53:17.300Z,1004.4
2017-04-13T05:53:58.187Z,1004.46
2017-04-13T05:54:39.077Z,1004.46
2017-04-13T05:55:19.956Z,1004.47
2017-04-13T05:56:00.831Z,1004.42
2017-04-13T05:56:41.716Z,1004.46
2017-04-13T05:57:22.598Z,1004.41
2017-04-13T05:58:03.477Z,1004.46
2017-04-13T05:58:44.360Z,1004.45
2017-04-13T05:59:25.223Z,1004.44
2017-04-13T06:00:06.111Z,1004.47
2017-04-13T06:00:46.989Z,1004.52
2017-04-13T06:01:27.911Z,1004.44
2017-04-13T06:02:08.800Z,1004.48
2017-04-13T06:02:49.688Z,1004.46
2017-04-13T06:03:30.557Z,1004.53
2017-04-13T06:04:11.436Z,1004.51
2017-04-13T06:04:52.313Z,1004.6
2017-04-13T06:05:33.200Z,1004.54
2017-04-13T06:06:14.069Z,1004.53
2017-04-13T06:06:54.952Z,1004.55
2017-04-13T06:07:35.826Z,1004.54
2017-04-13T06:08:16.707Z,1004.57
2017-04-13T06:08:57.597Z,1004.54
2017-04-13T06:09:38.474Z,1004.57
2017-04-13T06:10:19.347Z,1004.66
2017-04-13T06:11:00.219Z,1004.6
2017-04-13T06:11:41.097Z,1004.61
2017-04-13T06:12:22.009Z,1004.6
2017-04-13T06:13:02.880Z,1004.59
2017-04-13T06:13:43.759Z,1004.6
2017-04-13T06:14:24.634Z,1004.65
2017-04-13T06:15:05.524Z,1004.67
2017-04-13T06:15:46.397Z,1004.66
2017-04-13T06:16:27.271Z,1004.68
2017-04-13T06:17:08.144Z,1004.69
2017-04-13T06:17:49.015Z,1004.69
2017-04-13T06:18:29.893Z,1004.71
2017-04-13T06:19:10.769Z,1004.72
2017-04-13T06:19:51.644Z,1004.65
2017-04-13T06:20:32.513Z,1004.73
2017-04-13T06:21:13.380Z,1004.7
2017-04-13T06:21:54.267Z,1004.71
2017-04-13T06:22:35.199Z,1004.82
2017-04-13T06:23:16.059Z,1004.72
2017-04-13T06:23:56.936Z,1004.74
2017-04-13T06:24:37.810Z,1004.76
2017-04-13T06:25:18.700Z,1004.74
2017-04-13T06:25:59.579Z,1004.76
2017-04-13T06:26:40.456Z,1004.75
2017-04-13T06:27:21.335Z,1004.79
2017-04-13T06:28:02.352Z,1004.8
2017-04-13T06:28:43.227Z,1004.82
2017-04-13T06:29:24.095Z,1004.75
2017-04-13T06:30:05.012Z,1004.81
2017-04-13T06:30:45.882Z,1004.78
2017-04-13T06:31:26.755Z,1004.75
2017-04-13T06:32:07.627Z,1004.79
2017-04-13T06:32:48.511Z,1004.73
2017-04-13T06:33:29.400Z,1004.79
2017-04-13T06:34:10.271Z,1004.79
2017-04-13T06:34:51.146Z,1004.81
2017-04-13T06:35:32.024Z,1004.69
2017-04-13T06:36:12.905Z,1004.81
2017-04-13T06:36:53.786Z,1004.79
2017-04-13T06:37:34.706Z,1004.82
2017-04-13T06:38:15.642Z,1004.72
2017-04-13T06:38:56.524Z,1004.77
2017-04-13T06:39:37.402Z,1004.84
2017-04-13T06:40:18.305Z,1004.84
2017-04-13T06:40:59.193Z,1004.85
2017-04-13T06:41:40.078Z,1004.76
2017-04-13T06:42:20.961Z,1004.79
2017-04-13T06:43:01.882Z,1004.79
2017-04-13T06:43:42.721Z,1004.82
2017-04-13T06:44:23.601Z,1004.87
2017-04-13T06:45:04.496Z,1004.82
2017-04-13T06:45:45.370Z,1004.88
2017-04-13T06:46:26.249Z,1004.79
2017-04-13T06:47:07.126Z,1004.82
2017-04-13T06:47:48.012Z,1004.8
2017-04-13T06:48:28.889Z,1004.78
2017-04-13T06:49:09.772Z,1004.88
2017-04-13T06:49:50.646Z,1004.84
2017-04-13T06:50:31.523Z,1004.86
2017-04-13T06:51:12.403Z,1004.85
2017-04-13T06:51:53.294Z,1004.93
2017-04-13T06:52:34.163Z,1004.9
2017-04-13T06:53:15.049Z,1004.85
2017-04-13T06:53:55.917Z,1004.88
2017-04-13T06:54:36.804Z,1004.91
2017-04-13T06:55:17.723Z,1004.98
2017-04-13T06:55:58.552Z,1005.03
2017-04-13T06:56:39.425Z,1004.96
2017-04-13T06:57:20.313Z,1004.99
2017-04-13T06:58:01.196Z,1004.97
2017-04-13T06:58:42.079Z,1004.93
2017-04-13T06:59:22.959Z,1005
2017-04-13T07:00:03.892Z,1005.02
2017-04-13T07:01:37.101Z,1005.02
2017-04-13T07:02:17.968Z,1004.99
2017-04-13T07:02:58.848Z,1004.98
2017-04-13T07:03:39.731Z,1005.08
2017-04-13T07:04:20.609Z,1005.1
2017-04-13T07:05:01.485Z,1005.02
2017-04-13T07:05:42.372Z,1005.02
2017-04-13T07:06:23.278Z,1005.04
2017-04-13T07:07:04.161Z,1005.01
2017-04-13T07:07:45.018Z,1004.96
2017-04-13T07:08:25.881Z,1004.97
2017-04-13T07:09:06.761Z,1005.02
2017-04-13T07:09:47.647Z,1005
2017-04-13T07:10:28.532Z,1005.07
2017-04-13T07:11:09.406Z,1005.04
2017-04-13T07:11:50.277Z,1005.02
2017-04-13T07:12:31.152Z,1005.06
2017-04-13T07:13:12.037Z,1004.99
2017-04-13T07:13:52.920Z,1005.04
2017-04-13T07:14:33.795Z,1004.97
2017-04-13T07:15:14.668Z,1005.01
2017-04-13T07:15:55.533Z,1005.08
2017-04-13T07:16:36.413Z,1005.06
2017-04-13T07:17:17.297Z,1005.01
2017-04-13T07:17:58.175Z,1004.98
2017-04-13T07:18:39.053Z,1004.95
2017-04-13T07:19:19.929Z,1004.94
2017-04-13T07:20:00.820Z,1004.91
2017-04-13T07:20:41.703Z,1004.98
2017-04-13T07:21:22.579Z,1005
2017-04-13T07:22:03.443Z,1004.95
2017-04-13T07:22:44.310Z,1005
2017-04-13T07:23:25.215Z,1004.98
2017-04-13T07:24:06.098Z,1004.97
2017-04-13T07:24:46.983Z,1005.01
2017-04-13T07:25:27.858Z,1004.99
2017-04-13T07:26:08.746Z,1005.08
2017-04-13T07:26:49.614Z,1005.04
2017-04-13T07:27:30.481Z,1005.1
2017-04-13T07:28:11.348Z,1005.03
2017-04-13T07:28:52.217Z,1005
2017-04-13T07:29:33.095Z,1005.06
2017-04-13T07:30:13.973Z,1005.04
2017-04-13T07:30:54.909Z,1005.08
2017-04-13T07:31:35.745Z,1005.12
2017-04-13T07:32:16.621Z,1005.09
2017-04-13T07:32:57.499Z,1005.15
2017-04-13T07:33:38.700Z,1005.02
2017-04-13T07:34:19.248Z,1005.1
2017-04-13T07:35:00.128Z,1005.09
2017-04-13T07:35:41.007Z,1005.14
2017-04-13T07:36:21.888Z,1005.12
2017-04-13T07:37:02.767Z,1005.11
2017-04-13T07:37:43.647Z,1005.05
2017-04-13T07:38:24.534Z,1005.24
2017-04-13T07:39:05.414Z,1005.07
2017-04-13T07:39:46.290Z,1005.11
2017-04-13T07:40:27.173Z,1005.15
2017-04-13T07:41:08.056Z,1005.18
2017-04-13T07:41:48.934Z,1005.16
2017-04-13T07:42:29.844Z,1005.35
2017-04-13T07:43:10.742Z,1005.34
2017-04-13T07:43:51.617Z,1005.2
2017-04-13T07:44:32.498Z,1005.31
2017-04-13T07:45:13.417Z,1005.23
2017-04-13T07:45:54.287Z,1005.25
2017-04-13T07:46:35.167Z,1005.24
2017-04-13T07:47:16.073Z,1005.34
2017-04-13T07:47:56.952Z,1005.35
2017-04-13T07:48:37.834Z,1005.27
2017-04-13T07:49:18.714Z,1005.22
2017-04-13T07:49:59.640Z,1005.35
2017-04-13T07:50:40.484Z,1005.43
2017-04-13T07:51:21.366Z,1006
2017-04-13T07:52:02.265Z,1005.3
2017-04-13T07:52:43.145Z,1005.81
2017-04-13T07:53:24.026Z,1005.3
2017-04-13T07:54:04.905Z,1005.3
2017-04-13T07:54:45.790Z,1005.37
2017-04-13T07:55:26.672Z,1005.32
2017-04-13T07:56:07.550Z,1005.27
2017-04-13T07:56:48.470Z,1005.33
2017-04-13T07:57:29.356Z,1005.78
2017-04-13T07:58:10.226Z,1006.16
2017-04-13T07:58:51.098Z,1005.4
2017-04-13T07:59:32.012Z,1005.34
2017-04-13T08:00:12.857Z,1005.45
2017-04-13T08:00:53.741Z,1005.37
2017-04-13T08:01:34.618Z,1005.35
2017-04-13T08:02:15.496Z,1005.43
2017-04-13T08:02:56.376Z,1005.39
2017-04-13T08:03:37.260Z,1005.37
2017-04-13T08:04:18.141Z,1005.38
2017-04-13T08:04:59.022Z,1005.46
2017-04-13T08:05:39.917Z,1005.91
2017-04-13T08:06:20.803Z,1005.44
2017-04-13T08:07:01.677Z,1005.47
2017-04-13T08:07:42.560Z,1005.52
2017-04-13T08:08:23.444Z,1005.43
2017-04-13T08:09:04.342Z,1005.48
2017-04-13T08:09:45.217Z,1005.48
2017-04-13T08:10:26.101Z,1005.42
2017-04-13T08:11:06.990Z,1005.48
2017-04-13T08:11:47.872Z,1005.49
2017-04-13T08:12:28.753Z,1005.59
2017-04-13T08:13:09.632Z,1005.45
2017-04-13T08:13:50.505Z,1005.51
2017-04-13T08:14:31.394Z,1005.67
2017-04-13T08:15:12.280Z,1005.44
2017-04-13T08:15:53.209Z,1005.46
2017-04-13T08:16:34.090Z,1005.5
2017-04-13T08:17:14.959Z,1005.55
2017-04-13T08:17:55.834Z,1005.54
2017-04-13T08:18:36.713Z,1005.67
2017-04-13T08:19:17.603Z,1005.55
2017-04-13T08:19:58.486Z,1005.61
2017-04-13T08:20:39.351Z,1005.58